createdAt,value
2022-08-25T00:02:09.817Z,17.32
2022-08-25T00:04:37.177Z,17.23
2022-08-25T00:07:05.897Z,17.22
2022-08-25T00:09:34.724Z,17.15
2022-08-25T00:12:02.338Z,17.07
2022-08-25T00:14:36.258Z,17.07
2022-08-25T00:17:04.470Z,16.91
2022-08-25T00:19:34.826Z,16.92
2022-08-25T00:22:02.099Z,16.82
2022-08-25T00:24:29.655Z,16.71
2022-08-25T00:26:58.625Z,16.65
2022-08-25T00:29:26.983Z,16.66
2022-08-25T00:31:55.105Z,16.60
2022-08-25T00:34:25.794Z,16.60
2022-08-25T00:36:54.108Z,16.59
2022-08-25T00:39:22.511Z,16.55
2022-08-25T00:41:51.526Z,16.55
2022-08-25T00:44:18.901Z,16.43
2022-08-25T00:46:49.358Z,16.50
2022-08-25T00:49:26.299Z,16.41
2022-08-25T00:51:59.239Z,16.38
2022-08-25T00:54:32.157Z,16.29
2022-08-25T00:57:00.443Z,16.32
2022-08-25T00:59:28.015Z,16.27
2022-08-25T01:01:55.316Z,16.21
2022-08-25T01:07:19.688Z,16.24
2022-08-25T01:09:49.902Z,16.24
2022-08-25T01:12:16.540Z,16.21
2022-08-25T01:14:46.166Z,16.14
2022-08-25T01:17:13.523Z,16.10
2022-08-25T01:19:40.451Z,16.12
2022-08-25T01:22:07.406Z,16.06
2022-08-25T01:25:03.939Z,16.01
2022-08-25T01:27:30.571Z,16.00
2022-08-25T01:29:58.032Z,16.00
2022-08-25T01:32:25.217Z,16.00
2022-08-25T01:34:51.979Z,15.88
2022-08-25T01:37:19.311Z,15.88
2022-08-25T01:39:46.127Z,15.81
2022-08-25T01:42:13.364Z,15.97
2022-08-25T01:44:44.437Z,15.99
2022-08-25T01:47:12.043Z,16.02
2022-08-25T01:49:38.634Z,15.85
2022-08-25T01:52:25.959Z,15.91
2022-08-25T01:54:52.596Z,15.86
2022-08-25T01:57:19.583Z,15.92
2022-08-25T01:59:47.594Z,15.81
2022-08-25T02:02:14.253Z,15.81
2022-08-25T02:04:44.403Z,15.92
2022-08-25T02:07:11.584Z,15.84
2022-08-25T02:09:38.462Z,15.80
2022-08-25T02:12:05.244Z,15.79
2022-08-25T02:14:31.830Z,15.72
2022-08-25T02:16:58.336Z,15.74
2022-08-25T02:19:25.892Z,15.76
2022-08-25T02:21:52.861Z,15.79
2022-08-25T02:24:19.855Z,15.72
2022-08-25T02:26:46.533Z,15.68
2022-08-25T02:29:13.487Z,15.69
2022-08-25T02:31:40.448Z,15.67
2022-08-25T02:34:07.788Z,15.61
2022-08-25T02:36:34.949Z,15.71
2022-08-25T02:39:01.669Z,15.77
2022-08-25T02:41:31.787Z,15.72
2022-08-25T02:44:03.353Z,15.75
2022-08-25T02:46:31.087Z,15.69
2022-08-25T02:48:57.688Z,15.61
2022-08-25T02:51:25.714Z,15.66
2022-08-25T02:53:52.485Z,15.63
2022-08-25T02:56:20.666Z,15.57
2022-08-25T02:58:48.060Z,15.47
2022-08-25T03:01:15.994Z,15.49
2022-08-25T03:03:45.150Z,15.51
2022-08-25T03:06:19.446Z,15.43
2022-08-25T03:08:46.062Z,15.35
2022-08-25T03:11:12.614Z,15.32
2022-08-25T03:13:39.695Z,15.35
2022-08-25T03:16:11.277Z,15.21
2022-08-25T03:18:40.873Z,15.17
2022-08-25T03:21:08.314Z,15.16
2022-08-25T03:23:35.064Z,15.17
2022-08-25T03:26:20.875Z,15.11
2022-08-25T03:28:47.552Z,15.10
2022-08-25T03:31:14.367Z,15.06
2022-08-25T03:33:40.993Z,15.09
2022-08-25T03:36:08.854Z,15.13
2022-08-25T03:38:38.474Z,15.06
2022-08-25T03:41:17.451Z,14.94
2022-08-25T03:43:44.059Z,14.98
2022-08-25T03:46:20.921Z,14.91
2022-08-25T03:48:48.541Z,14.92
2022-08-25T03:51:27.952Z,14.91
2022-08-25T03:53:55.161Z,14.85
2022-08-25T03:56:21.817Z,14.86
2022-08-25T03:58:48.402Z,14.84
2022-08-25T04:01:16.081Z,14.76
2022-08-25T04:03:45.634Z,14.78
2022-08-25T04:06:13.067Z,14.71
2022-08-25T04:08:39.890Z,14.76
2022-08-25T04:11:16.242Z,14.70
2022-08-25T04:13:43.462Z,14.68
2022-08-25T04:16:12.848Z,14.70
2022-08-25T04:18:40.366Z,14.67
2022-08-25T04:21:09.741Z,14.59
2022-08-25T04:23:37.622Z,14.56
2022-08-25T04:26:16.269Z,14.51
2022-08-25T04:28:43.187Z,14.53
2022-08-25T04:31:11.887Z,14.50
2022-08-25T04:33:39.272Z,14.48
2022-08-25T04:36:11.461Z,14.46
2022-08-25T04:38:40.391Z,14.49
2022-08-25T04:41:11.014Z,14.50
2022-08-25T04:43:39.680Z,14.46
2022-08-25T04:46:12.549Z,14.54
2022-08-25T04:48:40.634Z,14.52
2022-08-25T04:51:08.838Z,14.59
2022-08-25T04:53:36.804Z,14.63
2022-08-25T04:56:08.010Z,14.65
2022-08-25T04:58:35.332Z,14.63
2022-08-25T05:01:08.101Z,14.63
2022-08-25T05:03:35.620Z,14.74
2022-08-25T05:06:02.918Z,14.76
2022-08-25T05:08:29.655Z,14.83
2022-08-25T05:10:56.968Z,14.87
2022-08-25T05:13:25.351Z,14.92
2022-08-25T05:15:57.656Z,15.01
2022-08-25T05:18:29.150Z,15.06
2022-08-25T05:20:57.262Z,15.09
2022-08-25T05:23:25.147Z,15.14
2022-08-25T05:25:52.804Z,15.29
2022-08-25T05:28:20.189Z,15.32
2022-08-25T05:30:49.072Z,15.54
2022-08-25T05:33:17.059Z,15.62
2022-08-25T05:35:43.914Z,15.64
2022-08-25T05:38:15.393Z,15.84
2022-08-25T05:40:42.409Z,15.96
2022-08-25T05:43:09.490Z,15.93
2022-08-25T05:45:36.267Z,16.08
2022-08-25T05:48:03.102Z,16.08
2022-08-25T05:50:29.714Z,16.13
2022-08-25T05:52:56.259Z,16.28
2022-08-25T05:55:22.941Z,16.29
2022-08-25T05:57:49.932Z,16.35
2022-08-25T06:00:18.795Z,16.44
2022-08-25T06:02:46.397Z,16.45
2022-08-25T06:05:21.991Z,16.60
2022-08-25T06:07:51.879Z,16.95
2022-08-25T06:10:20.241Z,16.89
2022-08-25T06:12:47.504Z,16.86
2022-08-25T06:15:18.227Z,17.04
2022-08-25T06:17:45.279Z,17.27
2022-08-25T06:20:17.910Z,17.36
2022-08-25T06:22:45.228Z,17.50
2022-08-25T06:25:14.441Z,17.62
2022-08-25T06:27:41.026Z,17.77
2022-08-25T06:30:10.857Z,17.90
2022-08-25T06:32:39.985Z,18.11
2022-08-25T06:35:10.388Z,18.23
2022-08-25T06:37:37.848Z,18.50
2022-08-25T06:40:06.303Z,18.56
2022-08-25T06:42:33.058Z,18.68
2022-08-25T06:44:59.597Z,18.89
2022-08-25T06:47:26.208Z,18.96
2022-08-25T06:49:52.764Z,19.20
2022-08-25T06:52:19.881Z,19.27
2022-08-25T06:54:47.024Z,19.35
2022-08-25T06:57:15.823Z,19.52
2022-08-25T06:59:42.517Z,19.64
2022-08-25T07:02:09.745Z,19.71
2022-08-25T07:04:36.941Z,19.79
2022-08-25T07:07:04.122Z,19.79
2022-08-25T07:09:31.382Z,19.94
2022-08-25T07:11:58.159Z,20.13
2022-08-25T07:14:25.207Z,20.17
2022-08-25T07:16:51.738Z,20.23
2022-08-25T07:19:21.033Z,20.31
2022-08-25T07:21:51.618Z,20.49
2022-08-25T07:24:19.097Z,20.59
2022-08-25T07:26:46.787Z,20.58
2022-08-25T07:29:17.306Z,20.62
2022-08-25T07:31:44.571Z,20.86
2022-08-25T07:34:29.767Z,20.77
2022-08-25T07:36:57.047Z,20.97
2022-08-25T07:39:25.376Z,20.82
2022-08-25T07:41:52.984Z,20.86
2022-08-25T07:44:23.896Z,21.09
2022-08-25T07:46:51.497Z,21.03
2022-08-25T07:49:23.326Z,21.17
2022-08-25T07:52:03.903Z,21.10
2022-08-25T07:54:34.331Z,21.19
2022-08-25T07:57:04.635Z,21.22
2022-08-25T07:59:39.440Z,21.21
2022-08-25T08:02:16.050Z,21.46
2022-08-25T08:04:49.494Z,21.45
2022-08-25T08:07:42.241Z,21.60
2022-08-25T08:13:00.571Z,21.73
2022-08-25T08:15:29.812Z,21.92
2022-08-25T08:17:57.919Z,21.93
2022-08-25T08:20:25.010Z,22.17
2022-08-25T08:22:51.700Z,22.22
2022-08-25T08:25:21.181Z,22.16
2022-08-25T08:27:48.869Z,22.29
2022-08-25T08:30:16.766Z,22.48
2022-08-25T08:33:06.299Z,22.54
2022-08-25T08:35:30.446Z,22.77
2022-08-25T08:37:56.982Z,22.86
2022-08-25T08:40:24.734Z,22.89
2022-08-25T08:43:04.013Z,22.86
2022-08-25T08:45:47.167Z,22.77
2022-08-25T08:48:19.163Z,22.96
2022-08-25T08:50:51.755Z,22.89
2022-08-25T08:53:26.004Z,22.88
2022-08-25T08:56:04.252Z,23.01
2022-08-25T08:59:00.608Z,23.25
2022-08-25T09:01:44.119Z,23.22
2022-08-25T09:04:20.649Z,23.30
2022-08-25T09:06:51.135Z,23.42
2022-08-25T09:09:26.802Z,23.52
2022-08-25T09:12:31.688Z,23.42
2022-08-25T09:15:57.510Z,23.49
2022-08-25T09:18:50.854Z,23.39
2022-08-25T09:21:20.851Z,23.54
2022-08-25T09:24:16.770Z,23.79
2022-08-25T09:26:57.678Z,23.59
2022-08-25T09:29:28.584Z,23.69
2022-08-25T09:32:00.337Z,23.94
2022-08-25T09:34:32.515Z,24.03
2022-08-25T09:37:00.023Z,23.98
2022-08-25T09:39:27.807Z,24.01
2022-08-25T09:42:00.318Z,24.10
2022-08-25T09:44:43.906Z,24.16
2022-08-25T09:47:23.850Z,24.43
2022-08-25T09:50:00.271Z,24.43
2022-08-25T09:52:41.437Z,24.61
2022-08-25T09:55:08.309Z,24.65
2022-08-25T09:57:37.822Z,24.71
2022-08-25T10:00:16.327Z,24.77
2022-08-25T10:02:45.099Z,24.91
2022-08-25T10:05:23.389Z,25.01
2022-08-25T10:07:57.466Z,25.14
2022-08-25T10:10:34.600Z,25.06
2022-08-25T10:13:03.716Z,24.98
2022-08-25T10:15:38.743Z,25.04
2022-08-25T10:18:18.941Z,25.07
2022-08-25T10:21:01.839Z,25.19
2022-08-25T10:23:28.919Z,25.24
2022-08-25T10:26:04.589Z,25.18
2022-08-25T10:28:46.238Z,25.06
2022-08-25T10:31:38.008Z,25.26
2022-08-25T10:34:20.095Z,25.50
2022-08-25T10:37:17.701Z,25.43
2022-08-25T10:39:55.482Z,25.66
2022-08-25T10:42:43.295Z,25.66
2022-08-25T10:45:44.572Z,25.67
2022-08-25T10:48:33.496Z,25.87
2022-08-25T10:51:19.594Z,25.83
2022-08-25T10:54:12.823Z,26.01
2022-08-25T10:56:45.950Z,25.94
2022-08-25T10:59:35.146Z,26.03
2022-08-25T11:02:13.833Z,25.97
2022-08-25T11:04:49.526Z,26.11
2022-08-25T11:07:22.158Z,26.12
2022-08-25T11:09:53.460Z,26.15
2022-08-25T11:12:30.501Z,26.15
2022-08-25T11:15:10.075Z,26.27
2022-08-25T11:17:50.233Z,26.39
2022-08-25T11:20:27.052Z,26.46
2022-08-25T11:23:07.627Z,26.42
2022-08-25T11:25:41.470Z,26.56
2022-08-25T11:28:16.950Z,26.72
2022-08-25T11:30:44.585Z,26.57
2022-08-25T11:33:16.815Z,26.70
2022-08-25T11:36:05.110Z,26.88
2022-08-25T11:38:39.447Z,26.80
2022-08-25T11:41:21.835Z,26.95
2022-08-25T11:44:32.807Z,27.05
2022-08-25T11:46:59.286Z,27.09
2022-08-25T11:49:49.135Z,26.91
2022-08-25T11:52:34.673Z,27.23
2022-08-25T11:55:36.854Z,27.36
2022-08-25T11:58:30.947Z,27.30
2022-08-25T12:01:00.662Z,27.40
2022-08-25T12:03:36.330Z,27.59
2022-08-25T12:06:14.889Z,27.61
2022-08-25T12:08:59.626Z,27.70
2022-08-25T12:11:42.296Z,27.71
2022-08-25T12:14:28.754Z,27.69
2022-08-25T12:16:55.421Z,27.76
2022-08-25T12:19:34.321Z,27.76
2022-08-25T12:22:04.172Z,27.81
2022-08-25T12:24:47.790Z,27.80
2022-08-25T12:27:38.139Z,27.87
2022-08-25T12:30:21.131Z,27.90
2022-08-25T12:33:02.492Z,28.17
2022-08-25T12:35:33.233Z,28.32
2022-08-25T12:38:04.867Z,28.37
2022-08-25T12:40:36.431Z,28.36
2022-08-25T12:47:14.577Z,28.67
2022-08-25T12:49:41.274Z,28.51
2022-08-25T12:52:11.686Z,28.30
2022-08-25T12:54:53.990Z,28.63
2022-08-25T12:57:43.320Z,28.84
2022-08-25T13:03:12.343Z,28.81
2022-08-25T13:06:14.613Z,28.88
2022-08-25T13:09:19.116Z,29.14
2022-08-25T13:11:56.781Z,29.19
2022-08-25T13:14:35.058Z,29.25
2022-08-25T13:17:05.762Z,29.14
2022-08-25T13:19:34.735Z,29.01
2022-08-25T13:22:16.330Z,29.00
2022-08-25T13:24:47.339Z,29.15
2022-08-25T13:27:26.683Z,29.17
2022-08-25T13:29:58.095Z,29.28
2022-08-25T13:32:34.317Z,29.23
2022-08-25T13:35:11.934Z,29.12
2022-08-25T13:37:40.911Z,29.25
2022-08-25T13:40:29.449Z,29.03
2022-08-25T13:43:02.816Z,29.21
2022-08-25T13:45:41.425Z,29.46
2022-08-25T13:48:20.904Z,29.43
2022-08-25T13:50:52.134Z,29.61
2022-08-25T13:53:26.067Z,29.67
2022-08-25T13:55:58.030Z,29.87
2022-08-25T13:58:38.898Z,29.96
2022-08-25T14:01:22.748Z,29.83
2022-08-25T14:04:52.753Z,30.01
2022-08-25T14:07:20.363Z,30.21
2022-08-25T14:09:54.059Z,30.23
2022-08-25T14:12:46.328Z,29.91
2022-08-25T14:15:20.099Z,30.07
2022-08-25T14:18:14.120Z,30.29
2022-08-25T14:20:50.569Z,30.38
2022-08-25T14:23:21.610Z,30.12
2022-08-25T14:25:52.460Z,30.32
2022-08-25T14:28:22.263Z,30.39
2022-08-25T14:30:53.890Z,30.48
2022-08-25T14:33:28.209Z,30.88
2022-08-25T14:35:58.210Z,30.95
2022-08-25T14:38:26.239Z,31.17
2022-08-25T14:40:54.148Z,31.32
2022-08-25T14:43:24.161Z,30.97
2022-08-25T14:45:58.501Z,31.39
2022-08-25T14:48:32.618Z,31.62
2022-08-25T14:51:00.371Z,31.46
2022-08-25T14:53:28.003Z,31.45
2022-08-25T14:55:59.100Z,32.95
2022-08-25T14:58:26.703Z,35.12
2022-08-25T15:00:54.680Z,36.04
2022-08-25T15:03:31.728Z,38.34
2022-08-25T15:06:00.122Z,40.28
2022-08-25T15:08:45.148Z,42.62
2022-08-25T15:11:13.343Z,44.61
2022-08-25T15:13:40.227Z,45.14
2022-08-25T15:16:08.735Z,44.47
2022-08-25T15:18:36.742Z,46.90
2022-08-25T15:21:03.522Z,47.51
2022-08-25T15:23:30.129Z,48.75
2022-08-25T15:25:56.914Z,49.65
2022-08-25T15:28:24.310Z,49.28
2022-08-25T15:30:53.177Z,47.62
2022-08-25T15:33:19.757Z,47.33
2022-08-25T15:35:46.624Z,46.89
2022-08-25T15:38:16.538Z,46.69
2022-08-25T15:40:43.102Z,47.70
2022-08-25T15:43:10.132Z,46.51
2022-08-25T15:45:37.755Z,47.30
2022-08-25T15:48:06.916Z,45.68
2022-08-25T15:50:36.919Z,48.56
2022-08-25T15:53:07.055Z,50.06
2022-08-25T15:55:40.322Z,49.09
2022-08-25T15:58:08.843Z,48.14
2022-08-25T16:00:35.997Z,48.08
2022-08-25T16:03:04.817Z,49.46
2022-08-25T16:05:37.249Z,49.88
2022-08-25T16:08:04.458Z,48.51
2022-08-25T16:10:39.723Z,48.10
2022-08-25T16:13:08.639Z,48.26
2022-08-25T16:15:36.178Z,48.73
2022-08-25T16:18:04.794Z,49.21
2022-08-25T16:20:33.417Z,48.74
2022-08-25T16:23:02.632Z,47.18
2022-08-25T16:25:31.322Z,44.20
2022-08-25T16:27:58.024Z,39.77
2022-08-25T16:30:25.121Z,37.62
2022-08-25T16:32:51.825Z,38.23
2022-08-25T16:35:18.666Z,40.24
2022-08-25T16:37:45.386Z,41.36
2022-08-25T16:40:14.872Z,41.54
2022-08-25T16:42:41.866Z,43.48
2022-08-25T16:45:08.921Z,39.45
2022-08-25T16:47:38.082Z,37.01
2022-08-25T16:50:08.906Z,35.15
2022-08-25T16:52:56.226Z,33.67
2022-08-25T16:55:25.627Z,32.28
2022-08-25T16:57:54.292Z,31.80
2022-08-25T17:00:25.038Z,31.70
2022-08-25T17:02:58.423Z,31.25
2022-08-25T17:05:26.698Z,30.74
2022-08-25T17:08:12.441Z,30.27
2022-08-25T17:10:41.403Z,29.82
2022-08-25T17:13:08.845Z,29.94
2022-08-25T17:15:39.551Z,29.72
2022-08-25T17:18:06.405Z,29.41
2022-08-25T17:20:34.684Z,29.22
2022-08-25T17:23:01.646Z,29.07
2022-08-25T17:25:41.153Z,28.98
2022-08-25T17:28:08.265Z,28.75
2022-08-25T17:30:39.055Z,28.32
2022-08-25T17:33:05.679Z,28.18
2022-08-25T17:35:32.469Z,27.80
2022-08-25T17:37:59.010Z,27.59
2022-08-25T17:40:26.549Z,27.23
2022-08-25T17:42:53.632Z,27.08
2022-08-25T17:45:20.189Z,26.98
2022-08-25T17:47:46.742Z,26.36
2022-08-25T17:50:13.448Z,26.45
2022-08-25T17:52:40.230Z,26.46
2022-08-25T17:55:08.691Z,26.36
2022-08-25T17:57:38.862Z,26.06
2022-08-25T18:00:12.736Z,25.79
2022-08-25T18:02:40.385Z,25.64
2022-08-25T18:05:07.162Z,25.32
2022-08-25T18:07:33.738Z,25.23
2022-08-25T18:10:00.540Z,25.11
2022-08-25T18:12:27.439Z,24.71
2022-08-25T18:14:54.233Z,24.64
2022-08-25T18:17:22.956Z,24.33
2022-08-25T18:19:49.692Z,24.27
2022-08-25T18:22:16.792Z,24.32
2022-08-25T18:24:44.399Z,23.97
2022-08-25T18:27:11.602Z,23.75
2022-08-25T18:29:38.247Z,23.61
2022-08-25T18:32:07.307Z,23.50
2022-08-25T18:34:33.950Z,23.55
2022-08-25T18:37:23.869Z,23.50
2022-08-25T18:40:09.346Z,23.25
2022-08-25T18:42:36.356Z,22.92
2022-08-25T18:45:05.646Z,22.84
2022-08-25T18:47:33.186Z,22.83
2022-08-25T18:50:04.268Z,22.75
2022-08-25T18:52:31.757Z,22.68
2022-08-25T18:54:59.353Z,22.59
2022-08-25T18:57:27.518Z,22.49
2022-08-25T18:59:55.512Z,22.67
2022-08-25T19:02:22.183Z,22.56
2022-08-25T19:04:52.641Z,22.50
2022-08-25T19:07:19.670Z,22.28
2022-08-25T19:09:46.411Z,22.17
2022-08-25T19:12:22.617Z,22.25
2022-08-25T19:14:49.743Z,22.29
2022-08-25T19:17:17.174Z,22.30
2022-08-25T19:19:44.220Z,22.36
2022-08-25T19:22:31.765Z,22.24
2022-08-25T19:24:58.808Z,22.07
2022-08-25T19:27:25.678Z,21.97
2022-08-25T19:29:52.595Z,21.99
2022-08-25T19:32:20.008Z,21.88
2022-08-25T19:34:51.549Z,21.73
2022-08-25T19:37:18.373Z,21.68
2022-08-25T19:39:52.843Z,21.60
2022-08-25T19:42:37.278Z,21.48
2022-08-25T19:45:09.220Z,21.44
2022-08-25T19:47:37.382Z,21.44
2022-08-25T19:50:06.133Z,21.55
2022-08-25T19:52:33.543Z,21.39
2022-08-25T19:55:02.890Z,21.31
2022-08-25T19:57:42.078Z,21.29
2022-08-25T20:00:19.575Z,21.24
2022-08-25T20:02:47.303Z,21.28
2022-08-25T20:05:16.947Z,21.23
2022-08-25T20:07:52.811Z,21.22
2022-08-25T20:10:20.630Z,21.38
2022-08-25T20:12:47.651Z,21.29
2022-08-25T20:15:16.592Z,21.22
2022-08-25T20:17:43.768Z,21.21
2022-08-25T20:20:16.870Z,21.22
2022-08-25T20:22:44.351Z,21.12
2022-08-25T20:25:22.858Z,21.01
2022-08-25T20:27:55.321Z,20.91
2022-08-25T20:30:27.692Z,20.78
2022-08-25T20:32:56.865Z,20.87
2022-08-25T20:35:26.793Z,20.86
2022-08-25T20:37:54.709Z,20.89
2022-08-25T20:40:25.421Z,20.90
2022-08-25T20:42:53.160Z,20.76
2022-08-25T20:45:23.814Z,20.72
2022-08-25T20:48:00.364Z,20.66
2022-08-25T20:50:27.545Z,20.76
2022-08-25T20:52:56.669Z,20.78
2022-08-25T20:55:24.229Z,20.70
2022-08-25T20:57:50.857Z,20.61
2022-08-25T21:00:19.390Z,20.57
2022-08-25T21:02:50.925Z,20.55
2022-08-25T21:05:17.901Z,20.54
2022-08-25T21:07:44.476Z,20.52
2022-08-25T21:10:14.491Z,20.48
2022-08-25T21:12:42.307Z,20.67
2022-08-25T21:15:10.394Z,20.58
2022-08-25T21:17:37.142Z,20.51
2022-08-25T21:20:06.725Z,20.62
2022-08-25T21:22:37.919Z,20.53
2022-08-25T21:25:05.106Z,20.62
2022-08-25T21:27:33.174Z,20.55
2022-08-25T21:29:59.806Z,20.66
2022-08-25T21:32:26.396Z,20.54
2022-08-25T21:34:54.651Z,20.51
2022-08-25T21:37:22.051Z,20.48
2022-08-25T21:39:48.919Z,20.37
2022-08-25T21:42:15.529Z,20.31
2022-08-25T21:44:42.099Z,20.34
2022-08-25T21:47:09.193Z,20.50
2022-08-25T21:49:37.475Z,20.50
2022-08-25T21:52:04.620Z,20.39
2022-08-25T21:54:31.511Z,20.27
2022-08-25T21:57:01.684Z,20.29
2022-08-25T21:59:31.965Z,20.33
2022-08-25T22:02:02.774Z,20.20
2022-08-25T22:04:30.262Z,20.12
2022-08-25T22:06:58.477Z,20.18
2022-08-25T22:09:26.451Z,19.98
2022-08-25T22:11:55.799Z,19.89
2022-08-25T22:14:24.275Z,19.88
2022-08-25T22:16:53.439Z,19.86
2022-08-25T22:19:21.603Z,19.79
2022-08-25T22:21:50.262Z,19.78
2022-08-25T22:24:18.365Z,19.77
2022-08-25T22:26:47.375Z,19.75
2022-08-25T22:29:14.592Z,19.89
2022-08-25T22:31:53.328Z,19.76
2022-08-25T22:34:20.098Z,19.87
2022-08-25T22:36:59.667Z,19.72
2022-08-25T22:39:27.218Z,19.63
2022-08-25T22:41:53.952Z,19.63
2022-08-25T22:44:22.001Z,19.57
2022-08-25T22:46:48.542Z,19.57
2022-08-25T22:49:15.070Z,19.57
2022-08-25T22:51:42.019Z,19.55
2022-08-25T22:54:09.566Z,19.80
2022-08-25T22:56:37.744Z,19.69
2022-08-25T22:59:08.468Z,19.61
2022-08-25T23:01:36.119Z,19.78
2022-08-25T23:04:04.971Z,19.71
2022-08-25T23:06:32.129Z,19.68
2022-08-25T23:08:58.746Z,19.48
2022-08-25T23:11:26.020Z,19.28
2022-08-25T23:13:57.605Z,19.26
2022-08-25T23:16:24.720Z,19.32
2022-08-25T23:18:51.980Z,19.24
2022-08-25T23:21:41.085Z,19.33
2022-08-25T23:24:09.147Z,19.14
2022-08-25T23:26:38.097Z,19.03
2022-08-25T23:29:18.840Z,18.97
2022-08-25T23:31:48.018Z,18.93
2022-08-25T23:34:16.547Z,19.06
2022-08-25T23:36:43.976Z,19.11
2022-08-25T23:39:11.523Z,19.06
2022-08-25T23:41:38.157Z,19.00
2022-08-25T23:44:05.767Z,18.97
2022-08-25T23:46:35.124Z,18.96
2022-08-25T23:49:03.010Z,19.00
2022-08-25T23:51:33.680Z,19.06
2022-08-25T23:54:06.001Z,19.15
2022-08-25T23:56:35.653Z,19.16
2022-08-25T23:59:04.775Z,19.03
